Stolt Courage — D5BG8 — position and weather

sailwx.info

Track history (hours):
 
Tides and Currents Weather Stations Pressure Air Temp Water Temp Dewpoint Dewpoint Depression Visibility Wind Speed Wind Dir Waves Ship Positions

Stolt Courage

Last reported at 2017-Oct-31 14:10 UTC. Time now 2017-Dec-13 05:35 UTC.
Position S 29°41' E 031°43'.
Warning: this ship's position is 42 days out of date.

Length 174 m; draft 10.7 m.

Type: Tanker. MMSI: 636015517.

Date/timePositionNaut miles runAvg speedWind from/ knotsBaromVisibWave heightAir tempDewpointWater temp
2017-Oct-31 14:10S 29°41' E 031°43'212.0
2017-Oct-31 14:00S 29°42' E 031°41'612.8
2017-Oct-31 13:31S 29°43' E 031°34'713.5
2017-Oct-31 13:00S 29°45' E 031°26'612.8
2017-Oct-31 12:31S 29°46' E 031°19'5 9.8
2017-Oct-31 12:01S 29°48' E 031°13'2 3.3
2017-Oct-31 11:30S 29°46' E 031°13'0 0.2
2017-Oct-31 11:00S 29°46' E 031°12'0 0.0
2017-Oct-31 10:30S 29°46' E 031°12'0 0.0
2017-Oct-31 10:00S 29°46' E 031°12'0 0.0
2017-Oct-31 09:24S 29°46' E 031°12'0 0.0
2017-Oct-31 09:00S 29°46' E 031°12'0 0.0
2017-Oct-31 08:30S 29°46' E 031°12'0 0.0
2017-Oct-31 08:00S 29°46' E 031°12'0 0.0
2017-Oct-31 07:30S 29°46' E 031°12'0 0.0
2017-Oct-31 07:00S 29°46' E 031°12'0 0.0
2017-Oct-31 06:18S 29°46' E 031°12'0 0.0
2017-Oct-31 06:00S 29°46' E 031°12'0 0.0
2017-Oct-31 05:30S 29°46' E 031°12'0 0.0
2017-Oct-31 05:00S 29°46' E 031°12'0 0.0
2017-Oct-31 04:30S 29°46' E 031°12'0 0.0
2017-Oct-31 04:00S 29°46' E 031°12'0 0.0
2017-Oct-31 03:30S 29°46' E 031°12'0 0.0
2017-Oct-31 03:00S 29°46' E 031°12'0 0.0
2017-Oct-31 02:30S 29°46' E 031°12'0 0.0
2017-Oct-31 02:00S 29°46' E 031°12'0 0.0
2017-Oct-31 01:30S 29°46' E 031°12'0 0.0
2017-Oct-31 01:00S 29°46' E 031°12'0 0.0
2017-Oct-31 00:30S 29°46' E 031°12'0 0.0
2017-Oct-31 00:00S 29°46' E 031°12'0 0.1
2017-Oct-30 23:30S 29°46' E 031°13'0 0.0
2017-Oct-30 23:00S 29°46' E 031°12'0 0.0
2017-Oct-30 22:30S 29°46' E 031°12'0 0.0
2017-Oct-30 22:00S 29°46' E 031°12'0 0.0
2017-Oct-30 21:30S 29°46' E 031°12'0 0.0
2017-Oct-30 21:00S 29°46' E 031°12'0 0.7
2017-Oct-30 20:31S 29°46' E 031°13'2 3.3
2017-Oct-30 20:01S 29°48' E 031°14'1 2.8
2017-Oct-30 19:31S 29°49' E 031°15'1 2.1
2017-Oct-30 19:00S 29°48' E 031°16'1 2.2
2017-Oct-30 18:30S 29°47' E 031°17'1 2.0
2017-Oct-30 18:00S 29°47' E 031°18'2 3.5
2017-Oct-30 17:31S 29°48' E 031°16'5 9.0
2017-Oct-30 17:00S 29°51' E 031°12'3 5.9
2017-Oct-30 16:30S 29°53' E 031°10'4 8.4
2017-Oct-30 16:01S 29°53' E 031°15'5 9.3
2017-Oct-30 15:31S 29°56' E 031°19'4 8.5
2017-Oct-30 15:00S 29°59' E 031°22'1 1.5
2017-Oct-30 14:01S 29°58' E 031°22'1 1.8
2017-Oct-30 13:30S 29°57' E 031°22'1 1.8
2017-Oct-30 13:01S 29°56' E 031°22'1 1.6
2017-Oct-30 12:31S 29°55' E 031°22'1 1.5
2017-Oct-30 12:01S 29°55' E 031°22'1 1.5
2017-Oct-30 11:30S 29°54' E 031°22'1 1.5
2017-Oct-30 11:00S 29°53' E 031°22'1 1.5
2017-Oct-30 10:31S 29°52' E 031°22'1 1.4
2017-Oct-30 10:00S 29°52' E 031°22'1 1.3
2017-Oct-30 09:31S 29°51' E 031°22'1 1.3
2017-Oct-30 09:01S 29°50' E 031°22'1 1.3
2017-Oct-30 08:31S 29°50' E 031°22'0 0.9
2017-Oct-30 08:00S 29°49' E 031°21'4 7.2
2017-Oct-30 07:31S 29°51' E 031°25'3 5.1
2017-Oct-30 07:00S 29°51' E 031°28'1 1.4
2017-Oct-30 06:20S 29°50' E 031°27'0 1.2
2017-Oct-30 06:01S 29°50' E 031°27'1 1.0
2017-Oct-30 05:31S 29°49' E 031°27'0 0.9
2017-Oct-30 05:01S 29°49' E 031°27'0 0.9
2017-Oct-30 04:31S 29°48' E 031°27'0 0.9
2017-Oct-30 04:01S 29°48' E 031°27'0 0.9
2017-Oct-30 03:31S 29°47' E 031°27'0 1.0
2017-Oct-30 03:01S 29°47' E 031°27'0 0.9
2017-Oct-30 02:30S 29°46' E 031°27'0 1.0
2017-Oct-30 02:00S 29°46' E 031°27'0 1.0
2017-Oct-30 01:30S 29°46' E 031°27'0 0.9
2017-Oct-30 01:01S 29°45' E 031°28'0 0.5
2017-Oct-30 00:30S 29°45' E 031°28'4 8.0
2017-Oct-30 00:01S 29°48' E 031°25'4 8.4
2017-Oct-29 23:31S 29°52' E 031°23'4 7.9
2017-Oct-29 23:00S 29°56' E 031°22'4 7.5
2017-Oct-29 22:31S 29°59' E 031°20'4 7.4
2017-Oct-29 22:01S 30°02' E 031°18'4 7.0
2017-Oct-29 21:30S 30°05' E 031°15'4 7.1
2017-Oct-29 21:01S 30°08' E 031°13'4 7.1
2017-Oct-29 20:31S 30°11' E 031°10'2 4.0
2017-Oct-29 20:01S 30°13' E 031°10'1 2.8
2017-Oct-29 19:31S 30°12' E 031°11'1 2.8
2017-Oct-29 19:00S 30°11' E 031°12'1 2.8
2017-Oct-29 18:31S 30°10' E 031°13'1 2.8
2017-Oct-29 18:00S 30°09' E 031°14'1 2.9
2017-Oct-29 17:31S 30°07' E 031°14'2 3.2
2017-Oct-29 17:00S 30°06' E 031°15'2 3.0
2017-Oct-29 16:31S 30°04' E 031°16'1 2.9
2017-Oct-29 16:01S 30°03' E 031°17'1 2.7
2017-Oct-29 15:31S 30°02' E 031°17'1 2.7
2017-Oct-29 15:01S 30°01' E 031°18'1 2.2
2017-Oct-29 14:31S 29°60' E 031°18'2 3.5
2017-Oct-29 14:01S 30°01' E 031°17'4 7.9
2017-Oct-29 13:31S 30°04' E 031°14'510.8
2017-Oct-29 13:01S 30°09' E 031°12'611.2
2017-Oct-29 12:31S 30°14' E 031°09'611.5
2017-Oct-29 12:00S 30°20' E 031°07'  
Track history (hours):
 
Tides and Currents Weather Stations Pressure Air Temp Water Temp Dewpoint Dewpoint Depression Visibility Wind Speed Wind Dir Waves Ship Positions

Stolt Courage

Last reported at 2017-Oct-31 14:10 UTC. Time now 2017-Dec-13 05:35 UTC.
Position S 29°41' E 031°43'.
Warning: this ship's position is 42 days out of date.

Length 174 m; draft 10.7 m.

Type: Tanker. MMSI: 636015517.

Date/timePositionNaut miles runAvg speedWind from/ knotsBaromVisibWave heightAir tempDewpointWater temp
2017-Oct-31 14:10S 29°41' E 031°43'212.0
2017-Oct-31 14:00S 29°42' E 031°41'612.8
2017-Oct-31 13:31S 29°43' E 031°34'713.5
2017-Oct-31 13:00S 29°45' E 031°26'612.8
2017-Oct-31 12:31S 29°46' E 031°19'5 9.8
2017-Oct-31 12:01S 29°48' E 031°13'2 3.3
2017-Oct-31 11:30S 29°46' E 031°13'0 0.2
2017-Oct-31 11:00S 29°46' E 031°12'0 0.0
2017-Oct-31 10:30S 29°46' E 031°12'0 0.0
2017-Oct-31 10:00S 29°46' E 031°12'0 0.0
2017-Oct-31 09:24S 29°46' E 031°12'0 0.0
2017-Oct-31 09:00S 29°46' E 031°12'0 0.0
2017-Oct-31 08:30S 29°46' E 031°12'0 0.0
2017-Oct-31 08:00S 29°46' E 031°12'0 0.0
2017-Oct-31 07:30S 29°46' E 031°12'0 0.0
2017-Oct-31 07:00S 29°46' E 031°12'0 0.0
2017-Oct-31 06:18S 29°46' E 031°12'0 0.0
2017-Oct-31 06:00S 29°46' E 031°12'0 0.0
2017-Oct-31 05:30S 29°46' E 031°12'0 0.0
2017-Oct-31 05:00S 29°46' E 031°12'0 0.0
2017-Oct-31 04:30S 29°46' E 031°12'0 0.0
2017-Oct-31 04:00S 29°46' E 031°12'0 0.0
2017-Oct-31 03:30S 29°46' E 031°12'0 0.0
2017-Oct-31 03:00S 29°46' E 031°12'0 0.0
2017-Oct-31 02:30S 29°46' E 031°12'0 0.0
2017-Oct-31 02:00S 29°46' E 031°12'0 0.0
2017-Oct-31 01:30S 29°46' E 031°12'0 0.0
2017-Oct-31 01:00S 29°46' E 031°12'0 0.0
2017-Oct-31 00:30S 29°46' E 031°12'0 0.0
2017-Oct-31 00:00S 29°46' E 031°12'0 0.1
2017-Oct-30 23:30S 29°46' E 031°13'0 0.0
2017-Oct-30 23:00S 29°46' E 031°12'0 0.0
2017-Oct-30 22:30S 29°46' E 031°12'0 0.0
2017-Oct-30 22:00S 29°46' E 031°12'0 0.0
2017-Oct-30 21:30S 29°46' E 031°12'0 0.0
2017-Oct-30 21:00S 29°46' E 031°12'0 0.7
2017-Oct-30 20:31S 29°46' E 031°13'2 3.3
2017-Oct-30 20:01S 29°48' E 031°14'1 2.8
2017-Oct-30 19:31S 29°49' E 031°15'1 2.1
2017-Oct-30 19:00S 29°48' E 031°16'1 2.2
2017-Oct-30 18:30S 29°47' E 031°17'1 2.0
2017-Oct-30 18:00S 29°47' E 031°18'2 3.5
2017-Oct-30 17:31S 29°48' E 031°16'5 9.0
2017-Oct-30 17:00S 29°51' E 031°12'3 5.9
2017-Oct-30 16:30S 29°53' E 031°10'4 8.4
2017-Oct-30 16:01S 29°53' E 031°15'5 9.3
2017-Oct-30 15:31S 29°56' E 031°19'4 8.5
2017-Oct-30 15:00S 29°59' E 031°22'1 1.5
2017-Oct-30 14:01S 29°58' E 031°22'1 1.8
2017-Oct-30 13:30S 29°57' E 031°22'1 1.8
2017-Oct-30 13:01S 29°56' E 031°22'1 1.6
2017-Oct-30 12:31S 29°55' E 031°22'1 1.5
2017-Oct-30 12:01S 29°55' E 031°22'1 1.5
2017-Oct-30 11:30S 29°54' E 031°22'1 1.5
2017-Oct-30 11:00S 29°53' E 031°22'1 1.5
2017-Oct-30 10:31S 29°52' E 031°22'1 1.4
2017-Oct-30 10:00S 29°52' E 031°22'1 1.3
2017-Oct-30 09:31S 29°51' E 031°22'1 1.3
2017-Oct-30 09:01S 29°50' E 031°22'1 1.3
2017-Oct-30 08:31S 29°50' E 031°22'0 0.9
2017-Oct-30 08:00S 29°49' E 031°21'4 7.2
2017-Oct-30 07:31S 29°51' E 031°25'3 5.1
2017-Oct-30 07:00S 29°51' E 031°28'1 1.4
2017-Oct-30 06:20S 29°50' E 031°27'0 1.2
2017-Oct-30 06:01S 29°50' E 031°27'1 1.0
2017-Oct-30 05:31S 29°49' E 031°27'0 0.9
2017-Oct-30 05:01S 29°49' E 031°27'0 0.9
2017-Oct-30 04:31S 29°48' E 031°27'0 0.9
2017-Oct-30 04:01S 29°48' E 031°27'0 0.9
2017-Oct-30 03:31S 29°47' E 031°27'0 1.0
2017-Oct-30 03:01S 29°47' E 031°27'0 0.9
2017-Oct-30 02:30S 29°46' E 031°27'0 1.0
2017-Oct-30 02:00S 29°46' E 031°27'0 1.0
2017-Oct-30 01:30S 29°46' E 031°27'0 0.9
2017-Oct-30 01:01S 29°45' E 031°28'0 0.5
2017-Oct-30 00:30S 29°45' E 031°28'4 8.0
2017-Oct-30 00:01S 29°48' E 031°25'4 8.4
2017-Oct-29 23:31S 29°52' E 031°23'4 7.9
2017-Oct-29 23:00S 29°56' E 031°22'4 7.5
2017-Oct-29 22:31S 29°59' E 031°20'4 7.4
2017-Oct-29 22:01S 30°02' E 031°18'4 7.0
2017-Oct-29 21:30S 30°05' E 031°15'4 7.1
2017-Oct-29 21:01S 30°08' E 031°13'4 7.1
2017-Oct-29 20:31S 30°11' E 031°10'2 4.0
2017-Oct-29 20:01S 30°13' E 031°10'1 2.8
2017-Oct-29 19:31S 30°12' E 031°11'1 2.8
2017-Oct-29 19:00S 30°11' E 031°12'1 2.8
2017-Oct-29 18:31S 30°10' E 031°13'1 2.8
2017-Oct-29 18:00S 30°09' E 031°14'1 2.9
2017-Oct-29 17:31S 30°07' E 031°14'2 3.2
2017-Oct-29 17:00S 30°06' E 031°15'2 3.0
2017-Oct-29 16:31S 30°04' E 031°16'1 2.9
2017-Oct-29 16:01S 30°03' E 031°17'1 2.7
2017-Oct-29 15:31S 30°02' E 031°17'1 2.7
2017-Oct-29 15:01S 30°01' E 031°18'1 2.2
2017-Oct-29 14:31S 29°60' E 031°18'2 3.5
2017-Oct-29 14:01S 30°01' E 031°17'4 7.9
2017-Oct-29 13:31S 30°04' E 031°14'510.8
2017-Oct-29 13:01S 30°09' E 031°12'611.2
2017-Oct-29 12:31S 30°14' E 031°09'611.5
2017-Oct-29 12:00S 30°20' E 031°07'  

Dump ship's entire track history